sensor_id;sensor_type;location;lat;lon;timestamp;P1;durP1;ratioP1;P2;durP2;ratioP2
44862;SDS011;30597;49.628;10.850;2023-01-10T00:00:18;2.70;;;2.43;;
44862;SDS011;30597;49.628;10.850;2023-01-10T00:02:45;3.03;;;2.63;;
44862;SDS011;30597;49.628;10.850;2023-01-10T00:05:10;3.03;;;2.70;;
44862;SDS011;30597;49.628;10.850;2023-01-10T00:07:36;3.30;;;2.30;;
44862;SDS011;30597;49.628;10.850;2023-01-10T00:10:01;3.33;;;3.03;;
44862;SDS011;30597;49.628;10.850;2023-01-10T00:12:27;3.07;;;2.77;;
44862;SDS011;30597;49.628;10.850;2023-01-10T00:15:11;3.53;;;2.60;;
44862;SDS011;30597;49.628;10.850;2023-01-10T00:17:37;3.47;;;2.83;;
44862;SDS011;30597;49.628;10.850;2023-01-10T00:20:02;2.50;;;2.30;;
44862;SDS011;30597;49.628;10.850;2023-01-10T00:22:28;3.23;;;2.80;;
44862;SDS011;30597;49.628;10.850;2023-01-10T00:24:53;3.20;;;2.43;;
44862;SDS011;30597;49.628;10.850;2023-01-10T00:27:19;3.30;;;2.80;;
44862;SDS011;30597;49.628;10.850;2023-01-10T00:29:46;3.17;;;2.87;;
44862;SDS011;30597;49.628;10.850;2023-01-10T00:32:13;3.07;;;2.77;;
44862;SDS011;30597;49.628;10.850;2023-01-10T00:34:39;2.87;;;2.67;;
44862;SDS011;30597;49.628;10.850;2023-01-10T00:37:04;3.50;;;2.50;;
44862;SDS011;30597;49.628;10.850;2023-01-10T00:39:30;3.20;;;2.63;;
44862;SDS011;30597;49.628;10.850;2023-01-10T00:41:55;3.73;;;2.70;;
44862;SDS011;30597;49.628;10.850;2023-01-10T00:44:39;2.87;;;2.67;;
44862;SDS011;30597;49.628;10.850;2023-01-10T00:47:05;3.63;;;3.17;;
44862;SDS011;30597;49.628;10.850;2023-01-10T00:49:31;3.03;;;2.60;;
44862;SDS011;30597;49.628;10.850;2023-01-10T00:51:56;2.63;;;2.40;;
44862;SDS011;30597;49.628;10.850;2023-01-10T00:54:23;2.87;;;2.17;;
44862;SDS011;30597;49.628;10.850;2023-01-10T00:56:49;2.63;;;2.43;;
44862;SDS011;30597;49.628;10.850;2023-01-10T00:59:15;2.53;;;2.33;;
44862;SDS011;30597;49.628;10.850;2023-01-10T01:01:40;2.50;;;2.30;;
44862;SDS011;30597;49.628;10.850;2023-01-10T01:04:06;2.83;;;2.53;;
44862;SDS011;30597;49.628;10.850;2023-01-10T01:06:31;2.30;;;2.10;;
44862;SDS011;30597;49.628;10.850;2023-01-10T01:08:57;2.53;;;2.23;;
44862;SDS011;30597;49.628;10.850;2023-01-10T01:11:23;3.43;;;2.93;;
44862;SDS011;30597;49.628;10.850;2023-01-10T01:13:49;2.23;;;2.03;;
44862;SDS011;30597;49.628;10.850;2023-01-10T01:16:15;2.10;;;1.90;;
44862;SDS011;30597;49.628;10.850;2023-01-10T01:18:41;2.00;;;1.83;;
44862;SDS011;30597;49.628;10.850;2023-01-10T01:21:07;2.37;;;2.17;;
44862;SDS011;30597;49.628;10.850;2023-01-10T01:23:33;2.77;;;2.37;;
44862;SDS011;30597;49.628;10.850;2023-01-10T01:25:59;2.83;;;2.53;;
44862;SDS011;30597;49.628;10.850;2023-01-10T01:28:24;3.73;;;2.83;;
44862;SDS011;30597;49.628;10.850;2023-01-10T01:30:50;2.37;;;2.17;;
44862;SDS011;30597;49.628;10.850;2023-01-10T01:33:16;1.83;;;1.63;;
44862;SDS011;30597;49.628;10.850;2023-01-10T01:35:42;2.80;;;2.60;;
44862;SDS011;30597;49.628;10.850;2023-01-10T01:38:09;2.70;;;2.17;;
44862;SDS011;30597;49.628;10.850;2023-01-10T01:40:34;3.20;;;2.40;;
44862;SDS011;30597;49.628;10.850;2023-01-10T01:43:03;2.97;;;2.40;;
44862;SDS011;30597;49.628;10.850;2023-01-10T01:45:34;2.07;;;1.87;;
44862;SDS011;30597;49.628;10.850;2023-01-10T01:50:58;2.47;;;2.27;;
44862;SDS011;30597;49.628;10.850;2023-01-10T01:56:13;2.60;;;2.33;;
44862;SDS011;30597;49.628;10.850;2023-01-10T01:58:44;2.17;;;1.97;;
44862;SDS011;30597;49.628;10.850;2023-01-10T02:01:23;2.60;;;1.90;;
44862;SDS011;30597;49.628;10.850;2023-01-10T02:03:51;3.27;;;2.50;;
44862;SDS011;30597;49.628;10.850;2023-01-10T02:06:20;1.60;;;1.50;;
44862;SDS011;30597;49.628;10.850;2023-01-10T02:08:50;2.40;;;2.20;;
44862;SDS011;30597;49.628;10.850;2023-01-10T02:11:20;2.33;;;2.13;;
44862;SDS011;30597;49.628;10.850;2023-01-10T02:13:46;2.27;;;2.07;;
44862;SDS011;30597;49.628;10.850;2023-01-10T02:16:12;3.10;;;2.30;;
44862;SDS011;30597;49.628;10.850;2023-01-10T02:18:38;1.80;;;1.70;;
44862;SDS011;30597;49.628;10.850;2023-01-10T02:23:47;2.00;;;1.90;;
44862;SDS011;30597;49.628;10.850;2023-01-10T02:26:22;3.33;;;2.10;;
44862;SDS011;30597;49.628;10.850;2023-01-10T02:35:30;1.70;;;1.60;;
44862;SDS011;30597;49.628;10.850;2023-01-10T02:42:44;2.60;;;2.10;;
44862;SDS011;30597;49.628;10.850;2023-01-10T02:45:17;2.57;;;2.37;;
44862;SDS011;30597;49.628;10.850;2023-01-10T02:48:16;1.93;;;1.77;;
44862;SDS011;30597;49.628;10.850;2023-01-10T02:50:44;2.97;;;2.10;;
44862;SDS011;30597;49.628;10.850;2023-01-10T02:53:20;1.90;;;1.80;;
44862;SDS011;30597;49.628;10.850;2023-01-10T03:10:29;2.30;;;2.10;;
44862;SDS011;30597;49.628;10.850;2023-01-10T03:13:14;2.00;;;1.83;;
44862;SDS011;30597;49.628;10.850;2023-01-10T03:15:46;1.43;;;1.33;;
44862;SDS011;30597;49.628;10.850;2023-01-10T03:18:16;1.73;;;1.63;;
44862;SDS011;30597;49.628;10.850;2023-01-10T03:20:47;1.97;;;1.63;;
44862;SDS011;30597;49.628;10.850;2023-01-10T03:23:16;2.00;;;1.70;;
44862;SDS011;30597;49.628;10.850;2023-01-10T03:25:45;1.90;;;1.80;;
44862;SDS011;30597;49.628;10.850;2023-01-10T03:28:15;1.60;;;1.40;;
44862;SDS011;30597;49.628;10.850;2023-01-10T03:30:51;1.80;;;1.70;;
44862;SDS011;30597;49.628;10.850;2023-01-10T03:33:23;1.80;;;1.70;;
44862;SDS011;30597;49.628;10.850;2023-01-10T03:36:08;1.73;;;1.60;;
44862;SDS011;30597;49.628;10.850;2023-01-10T03:41:32;1.80;;;1.50;;
44862;SDS011;30597;49.628;10.850;2023-01-10T03:44:22;1.70;;;1.60;;
44862;SDS011;30597;49.628;10.850;2023-01-10T03:47:14;2.00;;;1.63;;
44862;SDS011;30597;49.628;10.850;2023-01-10T03:50:09;1.60;;;1.50;;
44862;SDS011;30597;49.628;10.850;2023-01-10T03:52:38;1.33;;;1.23;;
44862;SDS011;30597;49.628;10.850;2023-01-10T03:55:05;1.97;;;1.50;;
44862;SDS011;30597;49.628;10.850;2023-01-10T03:57:34;1.83;;;1.73;;
44862;SDS011;30597;49.628;10.850;2023-01-10T03:59:59;1.93;;;1.33;;
44862;SDS011;30597;49.628;10.850;2023-01-10T04:02:26;1.80;;;1.40;;
44862;SDS011;30597;49.628;10.850;2023-01-10T04:04:52;1.40;;;1.20;;
44862;SDS011;30597;49.628;10.850;2023-01-10T04:07:18;1.70;;;1.50;;
44862;SDS011;30597;49.628;10.850;2023-01-10T04:09:43;1.50;;;1.40;;
44862;SDS011;30597;49.628;10.850;2023-01-10T04:12:09;1.50;;;1.40;;
44862;SDS011;30597;49.628;10.850;2023-01-10T04:14:34;1.47;;;1.30;;
44862;SDS011;30597;49.628;10.850;2023-01-10T04:17:00;1.67;;;1.57;;
44862;SDS011;30597;49.628;10.850;2023-01-10T04:19:26;2.00;;;1.57;;
44862;SDS011;30597;49.628;10.850;2023-01-10T04:21:51;1.53;;;1.37;;
44862;SDS011;30597;49.628;10.850;2023-01-10T04:24:17;1.60;;;1.17;;
44862;SDS011;30597;49.628;10.850;2023-01-10T04:26:42;1.90;;;1.50;;
44862;SDS011;30597;49.628;10.850;2023-01-10T04:29:08;1.50;;;1.40;;
44862;SDS011;30597;49.628;10.850;2023-01-10T04:31:34;1.53;;;1.20;;
44862;SDS011;30597;49.628;10.850;2023-01-10T04:34:00;2.53;;;1.93;;
44862;SDS011;30597;49.628;10.850;2023-01-10T04:36:26;1.87;;;1.70;;
44862;SDS011;30597;49.628;10.850;2023-01-10T04:38:51;1.87;;;1.60;;
44862;SDS011;30597;49.628;10.850;2023-01-10T04:41:17;1.33;;;1.20;;
44862;SDS011;30597;49.628;10.850;2023-01-10T04:43:42;1.23;;;1.13;;
44862;SDS011;30597;49.628;10.850;2023-01-10T04:46:08;1.57;;;1.43;;
44862;SDS011;30597;49.628;10.850;2023-01-10T04:48:34;1.27;;;1.17;;
44862;SDS011;30597;49.628;10.850;2023-01-10T04:51:01;3.80;;;1.70;;
44862;SDS011;30597;49.628;10.850;2023-01-10T04:53:27;1.50;;;1.37;;
44862;SDS011;30597;49.628;10.850;2023-01-10T04:55:52;1.43;;;1.20;;
44862;SDS011;30597;49.628;10.850;2023-01-10T04:58:18;1.37;;;1.27;;
44862;SDS011;30597;49.628;10.850;2023-01-10T05:00:43;1.30;;;1.20;;
44862;SDS011;30597;49.628;10.850;2023-01-10T05:03:09;1.40;;;1.30;;
44862;SDS011;30597;49.628;10.850;2023-01-10T05:05:34;1.27;;;1.13;;
44862;SDS011;30597;49.628;10.850;2023-01-10T05:08:00;1.80;;;1.70;;
44862;SDS011;30597;49.628;10.850;2023-01-10T05:10:25;1.30;;;1.20;;
44862;SDS011;30597;49.628;10.850;2023-01-10T05:12:51;2.10;;;1.80;;
44862;SDS011;30597;49.628;10.850;2023-01-10T05:15:17;1.30;;;1.20;;
44862;SDS011;30597;49.628;10.850;2023-01-10T05:17:44;2.67;;;1.40;;
44862;SDS011;30597;49.628;10.850;2023-01-10T05:20:10;1.30;;;1.20;;
44862;SDS011;30597;49.628;10.850;2023-01-10T05:22:37;1.47;;;1.37;;
44862;SDS011;30597;49.628;10.850;2023-01-10T05:25:03;1.53;;;1.20;;
44862;SDS011;30597;49.628;10.850;2023-01-10T05:27:29;1.30;;;1.20;;
44862;SDS011;30597;49.628;10.850;2023-01-10T05:29:55;1.53;;;1.43;;
44862;SDS011;30597;49.628;10.850;2023-01-10T05:32:20;1.20;;;1.10;;
44862;SDS011;30597;49.628;10.850;2023-01-10T05:34:46;1.10;;;1.00;;
44862;SDS011;30597;49.628;10.850;2023-01-10T05:37:11;1.37;;;1.27;;
44862;SDS011;30597;49.628;10.850;2023-01-10T05:39:37;1.63;;;1.37;;
44862;SDS011;30597;49.628;10.850;2023-01-10T05:42:04;1.70;;;1.43;;
44862;SDS011;30597;49.628;10.850;2023-01-10T05:44:29;1.23;;;1.13;;
44862;SDS011;30597;49.628;10.850;2023-01-10T05:46:55;1.57;;;1.47;;
44862;SDS011;30597;49.628;10.850;2023-01-10T05:49:20;1.20;;;1.10;;
44862;SDS011;30597;49.628;10.850;2023-01-10T05:51:46;1.33;;;1.23;;
44862;SDS011;30597;49.628;10.850;2023-01-10T05:54:11;1.33;;;1.23;;
44862;SDS011;30597;49.628;10.850;2023-01-10T05:56:37;1.37;;;1.27;;
44862;SDS011;30597;49.628;10.850;2023-01-10T05:59:02;1.40;;;1.30;;
44862;SDS011;30597;49.628;10.850;2023-01-10T06:01:28;1.93;;;1.50;;
44862;SDS011;30597;49.628;10.850;2023-01-10T06:03:53;2.00;;;1.17;;
44862;SDS011;30597;49.628;10.850;2023-01-10T06:06:19;1.30;;;1.20;;
44862;SDS011;30597;49.628;10.850;2023-01-10T06:08:45;1.97;;;1.20;;
44862;SDS011;30597;49.628;10.850;2023-01-10T06:11:10;1.67;;;0.90;;
44862;SDS011;30597;49.628;10.850;2023-01-10T06:13:36;1.67;;;1.30;;
44862;SDS011;30597;49.628;10.850;2023-01-10T06:16:01;1.10;;;1.00;;
44862;SDS011;30597;49.628;10.850;2023-01-10T06:18:27;1.30;;;1.20;;
44862;SDS011;30597;49.628;10.850;2023-01-10T06:20:52;0.93;;;0.93;;
44862;SDS011;30597;49.628;10.850;2023-01-10T06:23:18;1.10;;;1.00;;
44862;SDS011;30597;49.628;10.850;2023-01-10T06:25:43;1.20;;;0.93;;
44862;SDS011;30597;49.628;10.850;2023-01-10T06:28:10;1.33;;;1.23;;
44862;SDS011;30597;49.628;10.850;2023-01-10T06:30:37;1.30;;;1.00;;
44862;SDS011;30597;49.628;10.850;2023-01-10T06:33:06;1.47;;;0.90;;
44862;SDS011;30597;49.628;10.850;2023-01-10T06:35:32;1.90;;;1.77;;
44862;SDS011;30597;49.628;10.850;2023-01-10T06:37:58;1.20;;;1.10;;
44862;SDS011;30597;49.628;10.850;2023-01-10T06:40:24;0.97;;;0.90;;
44862;SDS011;30597;49.628;10.850;2023-01-10T06:42:50;1.13;;;0.97;;
44862;SDS011;30597;49.628;10.850;2023-01-10T06:45:16;1.10;;;1.00;;
44862;SDS011;30597;49.628;10.850;2023-01-10T06:47:42;1.17;;;1.07;;
44862;SDS011;30597;49.628;10.850;2023-01-10T06:50:08;1.30;;;1.20;;
44862;SDS011;30597;49.628;10.850;2023-01-10T06:52:34;1.53;;;0.80;;
44862;SDS011;30597;49.628;10.850;2023-01-10T06:55:00;1.20;;;1.03;;
44862;SDS011;30597;49.628;10.850;2023-01-10T06:57:25;1.30;;;1.20;;
44862;SDS011;30597;49.628;10.850;2023-01-10T06:59:52;1.20;;;1.10;;
44862;SDS011;30597;49.628;10.850;2023-01-10T07:02:18;1.00;;;0.90;;
44862;SDS011;30597;49.628;10.850;2023-01-10T07:04:43;1.47;;;1.20;;
44862;SDS011;30597;49.628;10.850;2023-01-10T07:07:09;1.07;;;0.90;;
44862;SDS011;30597;49.628;10.850;2023-01-10T07:09:35;1.40;;;1.20;;
44862;SDS011;30597;49.628;10.850;2023-01-10T07:12:00;1.67;;;1.30;;
44862;SDS011;30597;49.628;10.850;2023-01-10T07:14:26;1.10;;;1.00;;
44862;SDS011;30597;49.628;10.850;2023-01-10T07:16:51;1.43;;;1.13;;
44862;SDS011;30597;49.628;10.850;2023-01-10T07:19:17;1.57;;;1.20;;
44862;SDS011;30597;49.628;10.850;2023-01-10T07:21:43;1.40;;;1.30;;
44862;SDS011;30597;49.628;10.850;2023-01-10T07:24:09;1.50;;;1.30;;
44862;SDS011;30597;49.628;10.850;2023-01-10T07:26:35;1.97;;;0.83;;
44862;SDS011;30597;49.628;10.850;2023-01-10T07:29:01;1.70;;;1.23;;
44862;SDS011;30597;49.628;10.850;2023-01-10T07:31:26;1.67;;;1.57;;
44862;SDS011;30597;49.628;10.850;2023-01-10T07:33:52;2.07;;;1.57;;
44862;SDS011;30597;49.628;10.850;2023-01-10T07:36:18;1.70;;;1.60;;
44862;SDS011;30597;49.628;10.850;2023-01-10T07:38:44;1.30;;;1.20;;
44862;SDS011;30597;49.628;10.850;2023-01-10T07:41:10;1.47;;;1.37;;
44862;SDS011;30597;49.628;10.850;2023-01-10T07:43:35;2.20;;;2.00;;
44862;SDS011;30597;49.628;10.850;2023-01-10T07:46:02;1.77;;;1.07;;
44862;SDS011;30597;49.628;10.850;2023-01-10T07:48:32;1.40;;;1.30;;
44862;SDS011;30597;49.628;10.850;2023-01-10T07:50:58;1.60;;;1.40;;
44862;SDS011;30597;49.628;10.850;2023-01-10T07:53:25;1.13;;;1.00;;
44862;SDS011;30597;49.628;10.850;2023-01-10T07:55:51;1.40;;;1.30;;
44862;SDS011;30597;49.628;10.850;2023-01-10T07:58:17;1.77;;;1.30;;
44862;SDS011;30597;49.628;10.850;2023-01-10T08:00:42;1.10;;;0.93;;
44862;SDS011;30597;49.628;10.850;2023-01-10T08:03:09;1.50;;;1.20;;
44862;SDS011;30597;49.628;10.850;2023-01-10T08:05:36;2.80;;;1.50;;
44862;SDS011;30597;49.628;10.850;2023-01-10T08:08:05;1.70;;;1.50;;
44862;SDS011;30597;49.628;10.850;2023-01-10T08:10:35;1.70;;;1.40;;
44862;SDS011;30597;49.628;10.850;2023-01-10T08:13:01;2.37;;;1.70;;
44862;SDS011;30597;49.628;10.850;2023-01-10T08:15:27;1.43;;;1.33;;
44862;SDS011;30597;49.628;10.850;2023-01-10T08:17:53;1.20;;;1.10;;
44862;SDS011;30597;49.628;10.850;2023-01-10T08:20:19;1.97;;;1.80;;
44862;SDS011;30597;49.628;10.850;2023-01-10T08:22:44;1.80;;;1.70;;
44862;SDS011;30597;49.628;10.850;2023-01-10T08:25:10;1.80;;;1.70;;
44862;SDS011;30597;49.628;10.850;2023-01-10T08:27:36;2.03;;;1.57;;
44862;SDS011;30597;49.628;10.850;2023-01-10T08:30:03;1.57;;;1.23;;
44862;SDS011;30597;49.628;10.850;2023-01-10T08:32:29;1.50;;;1.30;;
44862;SDS011;30597;49.628;10.850;2023-01-10T08:34:55;2.07;;;1.80;;
44862;SDS011;30597;49.628;10.850;2023-01-10T08:37:20;1.73;;;1.53;;
44862;SDS011;30597;49.628;10.850;2023-01-10T08:39:46;1.53;;;1.43;;
44862;SDS011;30597;49.628;10.850;2023-01-10T08:42:11;1.30;;;1.20;;
44862;SDS011;30597;49.628;10.850;2023-01-10T08:44:37;2.07;;;1.70;;
44862;SDS011;30597;49.628;10.850;2023-01-10T08:47:03;1.90;;;1.40;;
44862;SDS011;30597;49.628;10.850;2023-01-10T08:49:28;1.57;;;1.47;;
44862;SDS011;30597;49.628;10.850;2023-01-10T08:51:54;1.53;;;1.43;;
44862;SDS011;30597;49.628;10.850;2023-01-10T08:54:19;1.63;;;1.40;;
44862;SDS011;30597;49.628;10.850;2023-01-10T08:56:45;1.73;;;1.40;;
44862;SDS011;30597;49.628;10.850;2023-01-10T08:59:11;2.00;;;1.50;;
44862;SDS011;30597;49.628;10.850;2023-01-10T09:01:36;1.40;;;1.20;;
44862;SDS011;30597;49.628;10.850;2023-01-10T09:04:02;1.33;;;1.20;;
44862;SDS011;30597;49.628;10.850;2023-01-10T09:06:27;1.60;;;1.50;;
44862;SDS011;30597;49.628;10.850;2023-01-10T09:08:53;1.90;;;1.67;;
44862;SDS011;30597;49.628;10.850;2023-01-10T09:11:18;1.87;;;1.27;;
44862;SDS011;30597;49.628;10.850;2023-01-10T09:13:47;1.67;;;1.57;;
44862;SDS011;30597;49.628;10.850;2023-01-10T09:16:14;1.37;;;1.27;;
44862;SDS011;30597;49.628;10.850;2023-01-10T09:18:40;1.50;;;1.40;;
44862;SDS011;30597;49.628;10.850;2023-01-10T09:21:06;1.37;;;1.27;;
44862;SDS011;30597;49.628;10.850;2023-01-10T09:23:31;1.40;;;1.30;;
44862;SDS011;30597;49.628;10.850;2023-01-10T09:25:58;1.60;;;1.43;;
44862;SDS011;30597;49.628;10.850;2023-01-10T09:28:24;1.20;;;1.10;;
44862;SDS011;30597;49.628;10.850;2023-01-10T09:30:50;2.10;;;1.53;;
44862;SDS011;30597;49.628;10.850;2023-01-10T09:33:16;1.37;;;1.27;;
44862;SDS011;30597;49.628;10.850;2023-01-10T09:35:42;1.30;;;1.20;;
44862;SDS011;30597;49.628;10.850;2023-01-10T09:38:12;2.03;;;1.60;;
44862;SDS011;30597;49.628;10.850;2023-01-10T09:43:27;1.47;;;1.33;;
44862;SDS011;30597;49.628;10.850;2023-01-10T09:49:09;2.23;;;1.73;;
44862;SDS011;30597;49.628;10.850;2023-01-10T09:51:51;1.73;;;1.30;;
44862;SDS011;30597;49.628;10.850;2023-01-10T09:54:25;1.30;;;1.13;;
44862;SDS011;30597;49.628;10.850;2023-01-10T09:57:00;3.00;;;1.30;;
44862;SDS011;30597;49.628;10.850;2023-01-10T09:59:36;2.13;;;1.40;;
44862;SDS011;30597;49.628;10.850;2023-01-10T10:02:06;1.40;;;1.30;;
44862;SDS011;30597;49.628;10.850;2023-01-10T10:04:38;1.80;;;1.60;;
44862;SDS011;30597;49.628;10.850;2023-01-10T10:07:07;1.83;;;1.30;;
44862;SDS011;30597;49.628;10.850;2023-01-10T10:09:37;1.40;;;1.30;;
44862;SDS011;30597;49.628;10.850;2023-01-10T10:12:07;1.90;;;1.60;;
44862;SDS011;30597;49.628;10.850;2023-01-10T10:23:19;1.40;;;1.30;;
44862;SDS011;30597;49.628;10.850;2023-01-10T10:26:18;1.60;;;1.50;;
44862;SDS011;30597;49.628;10.850;2023-01-10T10:31:54;2.43;;;1.63;;
44862;SDS011;30597;49.628;10.850;2023-01-10T10:34:33;2.87;;;1.90;;
44862;SDS011;30597;49.628;10.850;2023-01-10T10:37:27;2.60;;;2.13;;
44862;SDS011;30597;49.628;10.850;2023-01-10T10:40:05;2.57;;;2.00;;
44862;SDS011;30597;49.628;10.850;2023-01-10T10:42:42;2.23;;;2.03;;
44862;SDS011;30597;49.628;10.850;2023-01-10T10:50:38;3.13;;;2.00;;
44862;SDS011;30597;49.628;10.850;2023-01-10T10:53:12;1.60;;;1.50;;
44862;SDS011;30597;49.628;10.850;2023-01-10T10:55:37;3.03;;;2.20;;
44862;SDS011;30597;49.628;10.850;2023-01-10T10:58:03;2.10;;;1.90;;
44862;SDS011;30597;49.628;10.850;2023-01-10T11:00:31;3.20;;;1.93;;
44862;SDS011;30597;49.628;10.850;2023-01-10T11:03:00;2.20;;;1.73;;
44862;SDS011;30597;49.628;10.850;2023-01-10T11:05:45;2.33;;;1.97;;
44862;SDS011;30597;49.628;10.850;2023-01-10T11:08:12;2.43;;;2.00;;
44862;SDS011;30597;49.628;10.850;2023-01-10T11:10:46;2.10;;;1.90;;
44862;SDS011;30597;49.628;10.850;2023-01-10T11:13:34;2.47;;;2.10;;
44862;SDS011;30597;49.628;10.850;2023-01-10T11:16:23;2.30;;;2.10;;
44862;SDS011;30597;49.628;10.850;2023-01-10T11:19:13;2.27;;;1.80;;
44862;SDS011;30597;49.628;10.850;2023-01-10T11:21:59;3.30;;;1.80;;
44862;SDS011;30597;49.628;10.850;2023-01-10T11:24:32;1.80;;;1.70;;
44862;SDS011;30597;49.628;10.850;2023-01-10T11:27:01;2.13;;;1.80;;
44862;SDS011;30597;49.628;10.850;2023-01-10T11:32:16;2.27;;;2.07;;
44862;SDS011;30597;49.628;10.850;2023-01-10T11:34:53;2.40;;;1.90;;
44862;SDS011;30597;49.628;10.850;2023-01-10T11:37:26;1.73;;;1.63;;
44862;SDS011;30597;49.628;10.850;2023-01-10T11:40:15;2.73;;;2.50;;
44862;SDS011;30597;49.628;10.850;2023-01-10T11:42:45;2.40;;;2.20;;
44862;SDS011;30597;49.628;10.850;2023-01-10T11:47:44;2.30;;;2.03;;
44862;SDS011;30597;49.628;10.850;2023-01-10T11:50:32;3.03;;;1.93;;
44862;SDS011;30597;49.628;10.850;2023-01-10T11:53:00;3.30;;;2.43;;
44862;SDS011;30597;49.628;10.850;2023-01-10T11:55:28;3.53;;;2.33;;
44862;SDS011;30597;49.628;10.850;2023-01-10T11:57:57;3.80;;;2.40;;
44862;SDS011;30597;49.628;10.850;2023-01-10T12:00:45;2.93;;;1.90;;
44862;SDS011;30597;49.628;10.850;2023-01-10T12:05:50;2.47;;;1.90;;
44862;SDS011;30597;49.628;10.850;2023-01-10T12:08:27;6.00;;;2.40;;
44862;SDS011;30597;49.628;10.850;2023-01-10T12:11:07;3.13;;;2.23;;
44862;SDS011;30597;49.628;10.850;2023-01-10T12:13:55;3.47;;;2.40;;
44862;SDS011;30597;49.628;10.850;2023-01-10T12:18:52;2.90;;;2.50;;
44862;SDS011;30597;49.628;10.850;2023-01-10T12:21:23;2.40;;;2.20;;
44862;SDS011;30597;49.628;10.850;2023-01-10T12:23:54;2.43;;;2.23;;
44862;SDS011;30597;49.628;10.850;2023-01-10T12:26:23;2.63;;;2.07;;
44862;SDS011;30597;49.628;10.850;2023-01-10T12:28:52;2.40;;;2.20;;
44862;SDS011;30597;49.628;10.850;2023-01-10T12:31:21;2.57;;;2.13;;
44862;SDS011;30597;49.628;10.850;2023-01-10T12:33:52;3.30;;;2.27;;
44862;SDS011;30597;49.628;10.850;2023-01-10T12:44:50;2.93;;;2.43;;
44862;SDS011;30597;49.628;10.850;2023-01-10T12:50:22;2.70;;;2.47;;
44862;SDS011;30597;49.628;10.850;2023-01-10T12:55:36;2.50;;;2.23;;
44862;SDS011;30597;49.628;10.850;2023-01-10T12:58:04;2.83;;;2.10;;
44862;SDS011;30597;49.628;10.850;2023-01-10T13:00:36;2.03;;;1.83;;
44862;SDS011;30597;49.628;10.850;2023-01-10T13:03:10;1.97;;;1.70;;
44862;SDS011;30597;49.628;10.850;2023-01-10T13:05:38;3.07;;;2.50;;
44862;SDS011;30597;49.628;10.850;2023-01-10T13:08:06;3.07;;;2.30;;
44862;SDS011;30597;49.628;10.850;2023-01-10T13:10:37;2.50;;;2.10;;
44862;SDS011;30597;49.628;10.850;2023-01-10T13:16:26;2.03;;;1.70;;
44862;SDS011;30597;49.628;10.850;2023-01-10T13:19:04;4.80;;;2.27;;
44862;SDS011;30597;49.628;10.850;2023-01-10T13:21:47;2.53;;;2.33;;
44862;SDS011;30597;49.628;10.850;2023-01-10T13:24:18;3.17;;;2.40;;
44862;SDS011;30597;49.628;10.850;2023-01-10T13:29:39;2.17;;;2.00;;
44862;SDS011;30597;49.628;10.850;2023-01-10T13:32:20;2.13;;;2.03;;
44862;SDS011;30597;49.628;10.850;2023-01-10T13:34:54;2.40;;;2.10;;
44862;SDS011;30597;49.628;10.850;2023-01-10T13:37:35;2.20;;;1.90;;
44862;SDS011;30597;49.628;10.850;2023-01-10T13:40:03;3.27;;;1.90;;
44862;SDS011;30597;49.628;10.850;2023-01-10T13:42:33;2.27;;;1.87;;
44862;SDS011;30597;49.628;10.850;2023-01-10T13:45:23;2.23;;;1.93;;
44862;SDS011;30597;49.628;10.850;2023-01-10T14:08:56;2.80;;;2.23;;
44862;SDS011;30597;49.628;10.850;2023-01-10T14:11:24;2.60;;;2.03;;
44862;SDS011;30597;49.628;10.850;2023-01-10T14:13:53;2.17;;;1.60;;
44862;SDS011;30597;49.628;10.850;2023-01-10T14:16:34;2.03;;;1.83;;
44862;SDS011;30597;49.628;10.850;2023-01-10T14:19:03;2.27;;;1.73;;
44862;SDS011;30597;49.628;10.850;2023-01-10T14:21:31;2.17;;;1.80;;
44862;SDS011;30597;49.628;10.850;2023-01-10T14:24:15;3.00;;;1.97;;
44862;SDS011;30597;49.628;10.850;2023-01-10T14:26:49;4.03;;;1.97;;
44862;SDS011;30597;49.628;10.850;2023-01-10T14:29:18;2.67;;;2.07;;
44862;SDS011;30597;49.628;10.850;2023-01-10T14:31:44;2.30;;;1.93;;
44862;SDS011;30597;49.628;10.850;2023-01-10T14:34:18;2.77;;;1.50;;
44862;SDS011;30597;49.628;10.850;2023-01-10T14:37:01;2.50;;;2.27;;
44862;SDS011;30597;49.628;10.850;2023-01-10T14:39:33;2.70;;;2.20;;
44862;SDS011;30597;49.628;10.850;2023-01-10T14:42:06;2.27;;;1.80;;
44862;SDS011;30597;49.628;10.850;2023-01-10T14:45:15;2.30;;;2.03;;
44862;SDS011;30597;49.628;10.850;2023-01-10T14:47:27;3.13;;;1.90;;
44862;SDS011;30597;49.628;10.850;2023-01-10T14:49:58;2.50;;;1.70;;
44862;SDS011;30597;49.628;10.850;2023-01-10T14:52:28;2.57;;;2.37;;
44862;SDS011;30597;49.628;10.850;2023-01-10T14:55:00;2.97;;;2.20;;
44862;SDS011;30597;49.628;10.850;2023-01-10T14:57:33;2.53;;;2.27;;
44862;SDS011;30597;49.628;10.850;2023-01-10T15:00:03;2.20;;;2.00;;
44862;SDS011;30597;49.628;10.850;2023-01-10T15:02:36;2.40;;;1.97;;
44862;SDS011;30597;49.628;10.850;2023-01-10T15:05:14;4.93;;;2.07;;
44862;SDS011;30597;49.628;10.850;2023-01-10T15:07:50;2.60;;;2.33;;
44862;SDS011;30597;49.628;10.850;2023-01-10T15:10:19;2.23;;;1.90;;
44862;SDS011;30597;49.628;10.850;2023-01-10T15:12:46;2.50;;;1.83;;
44862;SDS011;30597;49.628;10.850;2023-01-10T15:15:14;2.30;;;1.53;;
44862;SDS011;30597;49.628;10.850;2023-01-10T15:17:42;2.87;;;1.93;;
44862;SDS011;30597;49.628;10.850;2023-01-10T15:20:12;2.10;;;1.57;;
44862;SDS011;30597;49.628;10.850;2023-01-10T15:22:40;2.97;;;2.10;;
44862;SDS011;30597;49.628;10.850;2023-01-10T15:27:43;3.00;;;1.90;;
44862;SDS011;30597;49.628;10.850;2023-01-10T15:30:16;2.50;;;1.80;;
44862;SDS011;30597;49.628;10.850;2023-01-10T15:32:50;2.67;;;1.83;;
44862;SDS011;30597;49.628;10.850;2023-01-10T15:35:18;3.10;;;1.90;;
44862;SDS011;30597;49.628;10.850;2023-01-10T15:37:48;1.87;;;1.40;;
44862;SDS011;30597;49.628;10.850;2023-01-10T15:40:21;2.60;;;1.67;;
44862;SDS011;30597;49.628;10.850;2023-01-10T15:45:42;2.43;;;1.73;;
44862;SDS011;30597;49.628;10.850;2023-01-10T15:48:23;1.70;;;1.50;;
44862;SDS011;30597;49.628;10.850;2023-01-10T15:53:50;1.60;;;1.50;;
44862;SDS011;30597;49.628;10.850;2023-01-10T15:56:19;1.70;;;1.60;;
44862;SDS011;30597;49.628;10.850;2023-01-10T15:58:50;2.80;;;1.70;;
44862;SDS011;30597;49.628;10.850;2023-01-10T16:01:16;2.40;;;1.30;;
44862;SDS011;30597;49.628;10.850;2023-01-10T16:03:46;1.60;;;1.40;;
44862;SDS011;30597;49.628;10.850;2023-01-10T16:09:00;1.90;;;1.70;;
44862;SDS011;30597;49.628;10.850;2023-01-10T16:11:37;2.00;;;1.73;;
44862;SDS011;30597;49.628;10.850;2023-01-10T16:14:28;1.43;;;1.27;;
44862;SDS011;30597;49.628;10.850;2023-01-10T16:16:54;1.93;;;1.70;;
44862;SDS011;30597;49.628;10.850;2023-01-10T16:19:19;1.70;;;1.50;;
44862;SDS011;30597;49.628;10.850;2023-01-10T16:21:46;1.80;;;1.70;;
44862;SDS011;30597;49.628;10.850;2023-01-10T16:24:16;2.20;;;1.73;;
44862;SDS011;30597;49.628;10.850;2023-01-10T16:26:45;2.43;;;1.60;;
44862;SDS011;30597;49.628;10.850;2023-01-10T16:29:11;1.60;;;1.50;;
44862;SDS011;30597;49.628;10.850;2023-01-10T16:31:37;1.77;;;1.53;;
44862;SDS011;30597;49.628;10.850;2023-01-10T16:34:03;2.70;;;1.60;;
44862;SDS011;30597;49.628;10.850;2023-01-10T16:36:28;1.77;;;1.37;;
44862;SDS011;30597;49.628;10.850;2023-01-10T16:38:54;2.03;;;1.77;;
44862;SDS011;30597;49.628;10.850;2023-01-10T16:41:19;1.90;;;1.50;;
44862;SDS011;30597;49.628;10.850;2023-01-10T16:44:11;1.70;;;1.50;;
44862;SDS011;30597;49.628;10.850;2023-01-10T16:46:36;2.37;;;1.60;;
44862;SDS011;30597;49.628;10.850;2023-01-10T16:49:02;1.80;;;1.47;;